Time;durP1;ratioP1;P1;durP2;ratioP2;P2;SDS_P1;SDS_P2;PMS_P1;PMS_P2;Temp;Humidity;BMP_temperature;BMP_pressure;BME280_temperature;BME280_humidity;BME280_pressure;Samples;Min_cycle;Max_cycle;Signal;HPM_P1;HPM_P2
2023/07/21 00:02:30;;;;;;;21.25;7.57;;;;;;;;;;4845854;29;20046;-79
2023/07/21 00:06:11;;;;;;;22.83;8.25;;;;;;;;;;4848585;29;20447;-77
2023/07/21 00:09:11;;;;;;;20.60;7.70;;;;;;;;;;4845330;29;20067;-77
2023/07/21 00:12:16;;;;;;;18.85;7.97;;;;;;;;;;4858796;29;20089;-76
2023/07/21 00:15:57;;;;;;;19.67;8.25;;;;;;;;;;4842597;29;20045;-76
2023/07/21 00:19:37;;;;;;;17.02;7.95;;;;;;;;;;4845905;29;20422;-78
2023/07/21 00:23:22;;;;;;;28.45;7.85;;;;;;;;;;4850869;29;20072;-77
2023/07/21 00:27:02;;;;;;;15.18;8.10;;;;;;;;;;4843262;29;20397;-76
2023/07/21 00:30:41;;;;;;;22.67;8.25;;;;;;;;;;4847145;29;20046;-76
2023/07/21 00:33:42;;;;;;;17.20;8.60;;;;;;;;;;4842978;29;20052;-77
2023/07/21 00:36:08;;;;;;;23.45;9.13;;;;;;;;;;4849203;29;20525;-77
2023/07/21 00:39:14;;;;;;;20.55;8.73;;;;;;;;;;4850538;29;20057;-76
2023/07/21 00:42:54;;;;;;;22.02;8.55;;;;;;;;;;4856613;29;20050;-77
2023/07/21 00:46:34;;;;;;;27.95;8.27;;;;;;;;;;4848490;29;20049;-79
2023/07/21 00:50:16;;;;;;;18.63;8.48;;;;;;;;;;4846108;29;20053;-76
2023/07/21 00:53:55;;;;;;;16.02;8.00;;;;;;;;;;4840785;29;20045;-78
2023/07/21 00:57:36;;;;;;;20.88;8.25;;;;;;;;;;4836756;29;20046;-77
2023/07/21 01:01:16;;;;;;;19.17;9.27;;;;;;;;;;4847605;29;20045;-78
2023/07/21 01:05:00;;;;;;;21.92;8.30;;;;;;;;;;4848528;29;20080;-77
2023/07/21 01:08:37;;;;;;;17.42;8.18;;;;;;;;;;4839815;29;20095;-77
2023/07/21 01:12:17;;;;;;;17.98;7.85;;;;;;;;;;4849472;29;20113;-77
2023/07/21 01:15:57;;;;;;;24.67;8.40;;;;;;;;;;4840378;29;20351;-76
2023/07/21 01:19:20;;;;;;;24.40;8.27;;;;;;;;;;4850249;29;20057;-76
2023/07/21 01:23:06;;;;;;;22.30;8.00;;;;;;;;;;4845195;29;20057;-78
2023/07/21 01:26:28;;;;;;;;;;;;;;;;;;4841340;29;20053;-78
2023/07/21 01:30:07;;;;;;;19.50;7.90;;;;;;;;;;4843155;29;19928;-77
2023/07/21 01:33:49;;;;;;;20.58;8.05;;;;;;;;;;4842508;29;20105;-77
2023/07/21 01:37:28;;;;;;;21.75;9.20;;;;;;;;;;4840975;29;20455;-75
2023/07/21 01:41:08;;;;;;;26.75;8.50;;;;;;;;;;4840128;29;20129;-77
2023/07/21 01:44:49;;;;;;;19.58;8.52;;;;;;;;;;4842694;29;20546;-77
2023/07/21 01:48:29;;;;;;;25.75;9.05;;;;;;;;;;4857583;29;20081;-77
2023/07/21 01:52:16;;;;;;;23.17;9.75;;;;;;;;;;4842802;29;20053;-76
2023/07/21 01:55:13;;;;;;;22.58;9.15;;;;;;;;;;4845271;29;20133;-77
2023/07/21 01:58:02;;;;;;;27.58;9.73;;;;;;;;;;4849521;29;20113;-75
2023/07/21 02:01:08;;;;;;;26.42;9.98;;;;;;;;;;4849007;29;20051;-76
2023/07/21 02:04:49;;;;;;;29.42;10.10;;;;;;;;;;4846662;29;20054;-76
2023/07/21 02:08:28;;;;;;;20.05;9.30;;;;;;;;;;4847875;29;20506;-75
2023/07/21 02:12:11;;;;;;;22.73;9.48;;;;;;;;;;4847814;29;20050;-76
2023/07/21 02:15:49;;;;;;;30.17;9.82;;;;;;;;;;4838239;29;20677;-76
2023/07/21 02:19:29;;;;;;;28.25;10.20;;;;;;;;;;4850285;29;20061;-77
2023/07/21 02:23:10;;;;;;;25.40;10.00;;;;;;;;;;4851612;29;20452;-76
2023/07/21 02:26:50;;;;;;;30.60;9.90;;;;;;;;;;4854101;29;20056;-76
2023/07/21 02:29:52;;;;;;;22.27;9.82;;;;;;;;;;4843844;29;20529;-75
2023/07/21 02:32:58;;;;;;;25.15;9.90;;;;;;;;;;4851420;29;20057;-76
2023/07/21 02:36:38;;;;;;;22.92;10.75;;;;;;;;;;4847073;29;20056;-76
2023/07/21 02:40:18;;;;;;;24.15;9.75;;;;;;;;;;4862258;29;20091;-76
2023/07/21 02:43:59;;;;;;;22.58;10.43;;;;;;;;;;4848159;29;21066;-77
2023/07/21 02:47:39;;;;;;;30.85;10.20;;;;;;;;;;4847554;29;20054;-77
2023/07/21 02:51:19;;;;;;;30.05;9.70;;;;;;;;;;4841444;29;20062;-76
2023/07/21 02:55:00;;;;;;;22.17;10.15;;;;;;;;;;4838090;29;20045;-76
2023/07/21 02:58:40;;;;;;;24.30;10.70;;;;;;;;;;4848596;29;20132;-78
2023/07/21 03:02:20;;;;;;;23.33;10.23;;;;;;;;;;4848686;29;20204;-78
2023/07/21 03:06:02;;;;;;;27.05;10.68;;;;;;;;;;4847682;29;20055;-79
2023/07/21 03:09:24;;;;;;;25.63;10.55;;;;;;;;;;4841451;29;20060;-78
2023/07/21 03:12:07;;;;;;;24.50;10.55;;;;;;;;;;4843996;29;20057;-76
2023/07/21 03:14:32;;;;;;;22.60;10.27;;;;;;;;;;4847545;29;20049;-78
2023/07/21 03:17:13;;;;;;;26.75;10.63;;;;;;;;;;4841843;29;20104;-77
2023/07/21 03:20:19;;;;;;;31.15;10.60;;;;;;;;;;4849859;29;20418;-79
2023/07/21 03:23:59;;;;;;;25.70;10.25;;;;;;;;;;4843678;29;20060;-78
2023/07/21 03:27:40;;;;;;;23.50;10.60;;;;;;;;;;4853184;29;20049;-76
2023/07/21 03:31:20;;;;;;;30.92;10.45;;;;;;;;;;4849780;29;20041;-77
2023/07/21 03:34:31;;;;;;;31.75;10.55;;;;;;;;;;4847423;29;20042;-77
2023/07/21 03:38:11;;;;;;;24.83;10.35;;;;;;;;;;4858049;29;20459;-78
2023/07/21 03:41:51;;;;;;;25.45;10.95;;;;;;;;;;4850967;29;20097;-79
2023/07/21 03:44:52;;;;;;;20.20;11.13;;;;;;;;;;4844754;29;20394;-79
2023/07/21 03:47:58;;;;;;;29.42;11.02;;;;;;;;;;4851931;29;20058;-77
2023/07/21 03:51:41;;;;;;;20.25;10.82;;;;;;;;;;4841955;29;20100;-78
2023/07/21 03:55:20;;;;;;;29.35;11.90;;;;;;;;;;4842447;29;20612;-78
2023/07/21 03:58:59;;;;;;;29.08;11.68;;;;;;;;;;4849703;29;20137;-78
2023/07/21 04:02:39;;;;;;;33.80;12.98;;;;;;;;;;4844810;29;20053;-78
2023/07/21 04:06:24;;;;;;;30.52;12.80;;;;;;;;;;4843881;29;20420;-78
2023/07/21 04:10:03;;;;;;;33.75;12.18;;;;;;;;;;4846628;29;20061;-76
2023/07/21 04:13:43;;;;;;;28.95;12.85;;;;;;;;;;4847854;29;20506;-76
2023/07/21 04:16:43;;;;;;;24.05;12.38;;;;;;;;;;4850034;29;20587;-79
2023/07/21 04:19:49;;;;;;;35.38;12.50;;;;;;;;;;4850984;29;20530;-76
2023/07/21 04:22:57;;;;;;;30.75;12.43;;;;;;;;;;4850813;29;20820;-76
2023/07/21 04:26:39;;;;;;;28.52;11.40;;;;;;;;;;4844182;29;20106;-77
2023/07/21 04:30:18;;;;;;;28.33;11.48;;;;;;;;;;4845982;29;20048;-78
2023/07/21 04:33:58;;;;;;;20.73;10.15;;;;;;;;;;4840664;29;20057;-77
2023/07/21 04:37:16;;;;;;;24.88;11.25;;;;;;;;;;4844306;29;20058;-75
2023/07/21 04:39:43;;;;;;;28.87;11.90;;;;;;;;;;4854898;29;20461;-77
2023/07/21 04:42:50;;;;;;;29.38;10.98;;;;;;;;;;4854799;29;20056;-77
2023/07/21 04:46:29;;;;;;;26.80;11.40;;;;;;;;;;4839612;29;20077;-77
2023/07/21 04:50:10;;;;;;;25.80;11.48;;;;;;;;;;4844197;29;20145;-79
2023/07/21 04:53:50;;;;;;;20.70;11.23;;;;;;;;;;4851204;29;20597;-77
2023/07/21 04:57:31;;;;;;;28.10;11.23;;;;;;;;;;4845182;29;20056;-78
2023/07/21 05:01:11;;;;;;;28.92;11.52;;;;;;;;;;4850555;29;20116;-77
2023/07/21 05:04:51;;;;;;;33.28;11.70;;;;;;;;;;4850061;29;20487;-78
2023/07/21 05:08:31;;;;;;;24.58;12.88;;;;;;;;;;4851371;29;20057;-79
2023/07/21 05:12:13;;;;;;;31.73;14.48;;;;;;;;;;4840123;29;20072;-78
2023/07/21 05:15:56;;;;;;;33.85;14.60;;;;;;;;;;4848046;29;20096;-77
2023/07/21 05:19:35;;;;;;;30.83;14.07;;;;;;;;;;4843680;29;20414;-77
2023/07/21 05:23:16;;;;;;;38.63;15.07;;;;;;;;;;4852181;29;20054;-77
2023/07/21 05:26:17;;;;;;;40.67;12.77;;;;;;;;;;4858407;29;20109;-80
2023/07/21 05:28:43;;;;;;;27.92;13.02;;;;;;;;;;4845513;29;20068;-77
2023/07/21 05:31:52;;;;;;;27.95;11.43;;;;;;;;;;4850986;29;20046;-77
2023/07/21 05:35:31;;;;;;;26.20;11.63;;;;;;;;;;4849502;29;20041;-77
2023/07/21 05:39:12;;;;;;;26.15;11.35;;;;;;;;;;4858432;29;20056;-77
2023/07/21 05:42:52;;;;;;;26.45;11.48;;;;;;;;;;4847317;29;20058;-78
2023/07/21 05:46:32;;;;;;;24.67;11.80;;;;;;;;;;4848692;29;20042;-80
2023/07/21 05:50:14;;;;;;;39.35;15.40;;;;;;;;;;4845829;29;20085;-77
2023/07/21 05:53:54;;;;;;;32.50;15.45;;;;;;;;;;4848630;29;20065;-78
2023/07/21 05:57:35;;;;;;;36.13;14.77;;;;;;;;;;4848627;29;20042;-78
2023/07/21 06:01:15;;;;;;;36.08;15.00;;;;;;;;;;4847661;29;20054;-78
2023/07/21 06:04:57;;;;;;;35.80;15.27;;;;;;;;;;4846610;29;20053;-76
2023/07/21 06:07:56;;;;;;;28.58;15.05;;;;;;;;;;4855747;29;20053;-77
2023/07/21 06:10:22;;;;;;;30.92;14.05;;;;;;;;;;4844267;29;20062;-78
2023/07/21 06:12:49;;;;;;;31.63;15.40;;;;;;;;;;4849525;29;20122;-76
2023/07/21 06:15:15;;;;;;;33.97;15.15;;;;;;;;;;4847330;29;20057;-77
2023/07/21 06:17:41;;;;;;;37.63;15.10;;;;;;;;;;4850465;29;20065;-79
2023/07/21 06:20:09;;;;;;;28.20;14.48;;;;;;;;;;4850237;29;20073;-77
2023/07/21 06:22:35;;;;;;;32.03;15.60;;;;;;;;;;4855973;29;20419;-79
2023/07/21 06:25:05;;;;;;;36.90;15.63;;;;;;;;;;4844695;29;20411;-79
2023/07/21 06:27:31;;;;;;;32.35;15.90;;;;;;;;;;4854154;29;20050;-78
2023/07/21 06:29:57;;;;;;;32.70;16.40;;;;;;;;;;4847868;29;20356;-76
2023/07/21 06:32:25;;;;;;;37.05;15.30;;;;;;;;;;4858114;29;20561;-79
2023/07/21 06:34:52;;;;;;;26.75;14.23;;;;;;;;;;4844669;29;20058;-78
2023/07/21 06:37:18;;;;;;;30.70;14.85;;;;;;;;;;4856093;29;20054;-78
2023/07/21 06:39:48;;;;;;;30.52;13.90;;;;;;;;;;4843683;29;20054;-78
2023/07/21 06:42:14;;;;;;;31.92;14.05;;;;;;;;;;4855890;29;20564;-76
2023/07/21 06:44:46;;;;;;;37.30;13.50;;;;;;;;;;4851360;29;20422;-77
2023/07/21 06:47:14;;;;;;;25.25;13.00;;;;;;;;;;4841558;29;20122;-76
2023/07/21 06:49:40;;;;;;;30.20;13.75;;;;;;;;;;4847877;29;20610;-77
2023/07/21 06:52:06;;;;;;;30.48;13.15;;;;;;;;;;4849070;29;20061;-76
2023/07/21 06:54:32;;;;;;;29.98;13.27;;;;;;;;;;4842062;29;20084;-76
2023/07/21 06:56:58;;;;;;;27.70;13.15;;;;;;;;;;4854115;29;20057;-76
2023/07/21 06:59:25;;;;;;;31.73;13.68;;;;;;;;;;4859940;29;20072;-78
2023/07/21 07:01:51;;;;;;;29.83;13.25;;;;;;;;;;4846468;29;20422;-77
2023/07/21 07:04:17;;;;;;;31.52;13.20;;;;;;;;;;4863789;29;20118;-79
2023/07/21 07:06:43;;;;;;;30.08;12.57;;;;;;;;;;4851116;29;20054;-78
2023/07/21 07:09:10;;;;;;;31.33;12.55;;;;;;;;;;4844818;29;20562;-77
2023/07/21 07:12:17;;;;;;;32.45;12.95;;;;;;;;;;4841499;29;20165;-76
2023/07/21 07:14:46;;;;;;;29.17;12.10;;;;;;;;;;4843365;29;20065;-77
2023/07/21 07:17:13;;;;;;;22.17;9.55;;;;;;;;;;4852805;29;20588;-79
2023/07/21 07:19:39;;;;;;;22.60;10.00;;;;;;;;;;4848729;29;20053;-78
2023/07/21 07:22:15;;;;;;;21.08;10.15;;;;;;;;;;4853501;29;20125;-78
2023/07/21 07:24:41;;;;;;;20.70;9.63;;;;;;;;;;4838562;29;20059;-77
2023/07/21 07:27:07;;;;;;;23.67;10.18;;;;;;;;;;4850707;29;20501;-79
2023/07/21 07:29:36;;;;;;;30.02;9.75;;;;;;;;;;4852535;29;20049;-77
2023/07/21 07:32:41;;;;;;;30.45;10.45;;;;;;;;;;4841216;29;20129;-75
2023/07/21 07:35:35;;;;;;;29.05;9.30;;;;;;;;;;4846178;29;20068;-80
2023/07/21 07:38:41;;;;;;;18.05;7.70;;;;;;;;;;4851427;29;20050;-78
2023/07/21 07:42:23;;;;;;;19.88;7.78;;;;;;;;;;4853120;29;20045;-78
2023/07/21 07:46:02;;;;;;;18.58;7.35;;;;;;;;;;4846038;29;20053;-77
2023/07/21 07:49:42;;;;;;;15.82;7.70;;;;;;;;;;4843044;29;20152;-74
2023/07/21 07:53:23;;;;;;;17.88;8.38;;;;;;;;;;4842569;29;20053;-76
2023/07/21 07:56:23;;;;;;;16.63;7.45;;;;;;;;;;4844723;29;20050;-78
2023/07/21 07:58:49;;;;;;;23.92;8.38;;;;;;;;;;4853985;29;20121;-75
2023/07/21 08:01:55;;;;;;;24.40;7.78;;;;;;;;;;4845973;29;20510;-75
2023/07/21 08:05:36;;;;;;;18.00;7.63;;;;;;;;;;4850585;29;20068;-75
2023/07/21 08:09:16;;;;;;;17.42;7.80;;;;;;;;;;4844364;29;20057;-79
2023/07/21 08:12:56;;;;;;;23.25;8.15;;;;;;;;;;4850132;29;20042;-79
2023/07/21 08:15:57;;;;;;;19.30;7.80;;;;;;;;;;4838642;29;20049;-76
2023/07/21 08:19:03;;;;;;;23.75;8.23;;;;;;;;;;4850868;29;20053;-77
2023/07/21 08:22:43;;;;;;;18.63;7.40;;;;;;;;;;4851788;29;20073;-79
2023/07/21 08:25:43;;;;;;;22.42;7.97;;;;;;;;;;4841829;29;20645;-76
2023/07/21 08:28:52;;;;;;;16.45;7.82;;;;;;;;;;4824985;29;20503;-76
2023/07/21 08:32:29;;;;;;;19.40;7.75;;;;;;;;;;4850606;29;20049;-77
2023/07/21 08:36:10;;;;;;;22.83;7.00;;;;;;;;;;4848703;29;20037;-79
2023/07/21 08:39:50;;;;;;;20.63;8.15;;;;;;;;;;4853564;29;20064;-76
2023/07/21 08:43:30;;;;;;;20.75;7.88;;;;;;;;;;4856459;29;20053;-81
2023/07/21 08:47:11;;;;;;;17.27;7.10;;;;;;;;;;4847568;29;20063;-78
2023/07/21 08:50:51;;;;;;;19.17;7.55;;;;;;;;;;4846830;29;20122;-75
2023/07/21 08:54:32;;;;;;;17.95;7.07;;;;;;;;;;4859130;29;20108;-79
2023/07/21 08:58:15;;;;;;;17.05;7.05;;;;;;;;;;4856888;29;20144;-79
2023/07/21 09:01:55;;;;;;;20.60;6.57;;;;;;;;;;4844690;29;20620;-78
2023/07/21 09:04:59;;;;;;;17.42;6.88;;;;;;;;;;4852381;29;20054;-80
2023/07/21 09:08:05;;;;;;;20.48;7.72;;;;;;;;;;4855127;29;20125;-78
2023/07/21 09:11:46;;;;;;;22.08;7.90;;;;;;;;;;4846581;29;20056;-76
2023/07/21 09:15:19;;;;;;;22.17;7.88;;;;;;;;;;4856416;29;20050;-78
2023/07/21 09:18:32;;;;;;;17.70;7.78;;;;;;;;;;4853507;29;20038;-78
2023/07/21 09:22:15;;;;;;;20.17;7.93;;;;;;;;;;4854092;29;20123;-79
2023/07/21 09:25:59;;;;;;;23.75;7.53;;;;;;;;;;4850172;29;20046;-78
2023/07/21 09:29:39;;;;;;;21.33;7.97;;;;;;;;;;4858174;29;20167;-79
2023/07/21 09:33:19;;;;;;;19.08;7.72;;;;;;;;;;4855617;29;20550;-78
2023/07/21 09:37:02;;;;;;;19.75;6.97;;;;;;;;;;4857102;29;20117;-79
2023/07/21 09:40:49;;;;;;;28.00;7.55;;;;;;;;;;4850565;29;20045;-75
2023/07/21 09:43:38;;;;;;;23.10;7.15;;;;;;;;;;4859255;29;20073;-80
2023/07/21 09:46:08;;;;;;;19.67;7.20;;;;;;;;;;4848804;29;20392;-78
2023/07/21 09:48:39;;;;;;;27.45;7.72;;;;;;;;;;4855250;29;20732;-78
2023/07/21 09:51:07;;;;;;;23.58;7.88;;;;;;;;;;4850625;29;20049;-75
2023/07/21 09:53:40;;;;;;;22.73;8.02;;;;;;;;;;4831449;29;20046;-78
2023/07/21 09:56:11;;;;;;;17.42;7.43;;;;;;;;;;4848936;29;20101;-78
2023/07/21 09:58:45;;;;;;;19.70;6.88;;;;;;;;;;4847604;29;20578;-75
2023/07/21 10:01:12;;;;;;;12.88;6.55;;;;;;;;;;4838285;29;20135;-75
2023/07/21 10:03:38;;;;;;;20.92;7.10;;;;;;;;;;4848520;29;20414;-76
2023/07/21 10:06:06;;;;;;;16.52;7.25;;;;;;;;;;4844813;29;20053;-73
2023/07/21 10:09:12;;;;;;;16.23;7.50;;;;;;;;;;4854530;29;20068;-78
2023/07/21 10:13:07;;;;;;;17.40;7.65;;;;;;;;;;4848354;29;20053;-80
2023/07/21 10:16:48;;;;;;;19.87;7.70;;;;;;;;;;4849772;29;20046;-79
2023/07/21 10:20:28;;;;;;;22.77;7.85;;;;;;;;;;4847123;29;20301;-76
2023/07/21 10:24:11;;;;;;;19.88;7.43;;;;;;;;;;4841953;29;20060;-75
2023/07/21 10:27:58;;;;;;;26.02;7.90;;;;;;;;;;4847153;29;20054;-77
2023/07/21 10:31:17;;;;;;;14.73;6.93;;;;;;;;;;4857653;29;20045;-77
2023/07/21 10:35:00;;;;;;;18.95;7.28;;;;;;;;;;4865437;29;20236;-79
2023/07/21 10:38:13;;;;;;;15.80;7.40;;;;;;;;;;4848072;29;20154;-78
2023/07/21 10:41:53;;;;;;;22.73;5.97;;;;;;;;;;4843700;29;20194;-70
2023/07/21 10:45:33;;;;;;;14.88;5.40;;;;;;;;;;4855895;29;20057;-74
2023/07/21 10:49:14;;;;;;;10.70;4.53;;;;;;;;;;4851412;29;20559;-78
2023/07/21 10:52:56;;;;;;;14.70;4.35;;;;;;;;;;4849547;29;20053;-75
2023/07/21 10:56:38;;;;;;;10.90;4.50;;;;;;;;;;4839498;29;20081;-76
2023/07/21 11:00:19;;;;;;;10.77;4.15;;;;;;;;;;4852117;29;20068;-75
2023/07/21 11:03:59;;;;;;;7.07;3.95;;;;;;;;;;4848206;29;20073;-78
2023/07/21 11:07:39;;;;;;;8.05;3.75;;;;;;;;;;4850547;29;20487;-74
2023/07/21 11:11:20;;;;;;;10.63;4.20;;;;;;;;;;4846947;29;20052;-78
2023/07/21 11:15:00;;;;;;;10.68;4.22;;;;;;;;;;4857481;29;20056;-77
2023/07/21 11:18:42;;;;;;;11.55;5.13;;;;;;;;;;4852887;29;20049;-78
2023/07/21 11:22:21;;;;;;;9.85;4.63;;;;;;;;;;4854269;29;20050;-78
2023/07/21 11:26:01;;;;;;;8.15;4.00;;;;;;;;;;4855241;29;20416;-80
2023/07/21 11:29:46;;;;;;;14.82;4.20;;;;;;;;;;4844247;29;20054;-75
2023/07/21 11:33:26;;;;;;;11.13;4.10;;;;;;;;;;4851224;29;20495;-75
2023/07/21 11:37:09;;;;;;;8.38;4.10;;;;;;;;;;4844829;29;20081;-77
2023/07/21 11:40:48;;;;;;;13.35;3.60;;;;;;;;;;4846210;29;20058;-74
2023/07/21 11:44:30;;;;;;;9.25;3.70;;;;;;;;;;4841310;29;20037;-75
2023/07/21 11:48:10;;;;;;;9.57;3.60;;;;;;;;;;4850049;29;20080;-75
2023/07/21 11:51:53;;;;;;;7.55;3.50;;;;;;;;;;4847050;29;20046;-77
2023/07/21 11:55:30;;;;;;;8.20;3.47;;;;;;;;;;4846653;29;20057;-74
2023/07/21 11:59:11;;;;;;;5.97;3.40;;;;;;;;;;4855922;29;20054;-79
2023/07/21 12:02:52;;;;;;;11.30;3.70;;;;;;;;;;4853963;29;20146;-73
2023/07/21 12:06:31;;;;;;;12.27;4.10;;;;;;;;;;4847683;29;20147;-75
2023/07/21 12:10:12;;;;;;;8.48;3.60;;;;;;;;;;4850629;29;20046;-80
2023/07/21 12:13:52;;;;;;;20.85;3.63;;;;;;;;;;4848013;29;20071;-78
2023/07/21 12:17:32;;;;;;;8.80;3.20;;;;;;;;;;4845010;29;20079;-75
2023/07/21 12:21:13;;;;;;;12.60;3.25;;;;;;;;;;4842105;29;20419;-76
2023/07/21 12:24:53;;;;;;;9.95;3.97;;;;;;;;;;4844263;29;20042;-79
2023/07/21 12:28:34;;;;;;;10.43;3.47;;;;;;;;;;4858864;29;20077;-79
2023/07/21 12:32:14;;;;;;;11.15;3.30;;;;;;;;;;4861943;29;20135;-78
2023/07/21 12:35:54;;;;;;;8.77;3.60;;;;;;;;;;4857072;29;20114;-80
2023/07/21 12:39:34;;;;;;;11.82;3.50;;;;;;;;;;4869133;29;20419;-80
2023/07/21 12:43:14;;;;;;;12.30;3.40;;;;;;;;;;4848544;29;20072;-79
2023/07/21 12:46:56;;;;;;;8.27;3.85;;;;;;;;;;4842480;29;20270;-78
2023/07/21 12:50:37;;;;;;;6.32;3.50;;;;;;;;;;4835283;29;20049;-79
2023/07/21 12:54:17;;;;;;;7.25;3.05;;;;;;;;;;4850325;29;20057;-78
2023/07/21 12:57:58;;;;;;;7.22;2.83;;;;;;;;;;4842250;29;20061;-76
2023/07/21 13:01:38;;;;;;;5.53;3.05;;;;;;;;;;4840588;29;20058;-75
2023/07/21 13:05:19;;;;;;;11.85;3.33;;;;;;;;;;4850281;29;20071;-75
2023/07/21 13:08:59;;;;;;;9.75;3.60;;;;;;;;;;4855342;29;20121;-76
2023/07/21 13:12:40;;;;;;;11.27;3.33;;;;;;;;;;4839684;29;20053;-75
2023/07/21 13:15:40;;;;;;;10.80;3.45;;;;;;;;;;4845520;29;20508;-76
2023/07/21 13:18:06;;;;;;;7.75;3.55;;;;;;;;;;4846648;29;20061;-74
2023/07/21 13:20:41;;;;;;;8.63;3.60;;;;;;;;;;4848724;29;20054;-77
2023/07/21 13:23:47;;;;;;;10.00;3.50;;;;;;;;;;4845659;29;20053;-76
2023/07/21 13:27:27;;;;;;;13.00;3.55;;;;;;;;;;4854148;29;20049;-79
2023/07/21 13:31:07;;;;;;;15.35;3.65;;;;;;;;;;4854330;29;20053;-78
2023/07/21 13:34:48;;;;;;;10.02;3.28;;;;;;;;;;4849090;29;20076;-77
2023/07/21 13:38:30;;;;;;;8.90;3.30;;;;;;;;;;4851732;29;20049;-79
2023/07/21 13:42:08;;;;;;;13.32;3.72;;;;;;;;;;4859424;29;20089;-74
2023/07/21 13:45:49;;;;;;;10.90;3.50;;;;;;;;;;4855948;29;20163;-78
2023/07/21 13:48:39;;;;;;;8.68;3.60;;;;;;;;;;4856489;29;20063;-80
2023/07/21 13:51:05;;;;;;;13.68;3.67;;;;;;;;;;4848032;29;20463;-78
2023/07/21 13:53:33;;;;;;;14.63;3.88;;;;;;;;;;4863268;29;20529;-79
2023/07/21 13:56:02;;;;;;;12.80;3.95;;;;;;;;;;4856128;29;20060;-76
2023/07/21 13:58:29;;;;;;;10.95;3.92;;;;;;;;;;4851529;29;20128;-79
2023/07/21 14:00:55;;;;;;;12.70;4.30;;;;;;;;;;4843793;29;20053;-79
2023/07/21 14:03:21;;;;;;;12.80;4.03;;;;;;;;;;4834718;29;20073;-77
2023/07/21 14:05:47;;;;;;;11.65;3.88;;;;;;;;;;4855976;29;20046;-79
2023/07/21 14:08:15;;;;;;;13.85;4.15;;;;;;;;;;4851504;29;20065;-77
2023/07/21 14:10:41;;;;;;;10.05;4.18;;;;;;;;;;4847156;29;20085;-76
2023/07/21 14:13:07;;;;;;;9.38;3.80;;;;;;;;;;4832707;29;20062;-77
2023/07/21 14:16:13;;;;;;;16.05;3.97;;;;;;;;;;4861738;29;20078;-78
2023/07/21 14:19:53;;;;;;;11.95;3.55;;;;;;;;;;4851734;29;20054;-78
2023/07/21 14:23:33;;;;;;;17.00;4.40;;;;;;;;;;4858048;29;20056;-78
2023/07/21 14:27:14;;;;;;;13.55;3.58;;;;;;;;;;4849894;29;20049;-80
2023/07/21 14:30:54;;;;;;;13.50;3.65;;;;;;;;;;4847015;29;20511;-77
2023/07/21 14:34:34;;;;;;;13.63;3.33;;;;;;;;;;4853250;29;20050;-79
2023/07/21 14:38:15;;;;;;;7.22;3.13;;;;;;;;;;4848213;29;20120;-77
2023/07/21 14:41:55;;;;;;;10.73;4.03;;;;;;;;;;4840299;29;20121;-77
2023/07/21 14:45:35;;;;;;;9.90;3.70;;;;;;;;;;4841073;29;20273;-77
2023/07/21 14:49:15;;;;;;;13.38;3.85;;;;;;;;;;4852490;29;20446;-79
2023/07/21 14:52:56;;;;;;;17.95;4.05;;;;;;;;;;4853032;29;20058;-74
2023/07/21 14:56:36;;;;;;;12.95;3.53;;;;;;;;;;4847522;29;20051;-74
2023/07/21 15:00:22;;;;;;;16.77;3.97;;;;;;;;;;4850364;29;20053;-81
2023/07/21 15:03:57;;;;;;;8.70;3.65;;;;;;;;;;4847736;29;20135;-79
2023/07/21 15:07:37;;;;;;;8.43;3.95;;;;;;;;;;4848826;29;20064;-77
2023/07/21 15:11:19;;;;;;;11.25;4.10;;;;;;;;;;4844847;29;20064;-78
2023/07/21 15:14:47;;;;;;;11.02;4.25;;;;;;;;;;4854813;29;20060;-74
2023/07/21 15:17:14;;;;;;;11.68;3.83;;;;;;;;;;4845205;29;20062;-80
2023/07/21 15:19:39;;;;;;;9.13;3.38;;;;;;;;;;4845663;29;20105;-76
2023/07/21 15:22:06;;;;;;;9.75;3.53;;;;;;;;;;4863996;29;20108;-80
2023/07/21 15:24:31;;;;;;;18.52;3.90;;;;;;;;;;4844544;29;20050;-78
2023/07/21 15:27:00;;;;;;;15.90;4.00;;;;;;;;;;4857994;29;20068;-80
2023/07/21 15:29:28;;;;;;;12.93;3.85;;;;;;;;;;4861135;29;20258;-76
2023/07/21 15:31:55;;;;;;;9.15;3.60;;;;;;;;;;4858435;29;20052;-73
2023/07/21 15:34:21;;;;;;;11.65;3.50;;;;;;;;;;4847335;29;20467;-74
2023/07/21 15:36:47;;;;;;;10.43;3.30;;;;;;;;;;4840676;29;20469;-74
2023/07/21 15:39:13;;;;;;;18.75;3.92;;;;;;;;;;4836138;29;20038;-76
2023/07/21 15:41:39;;;;;;;12.23;4.30;;;;;;;;;;4819642;29;20066;-77
2023/07/21 15:44:05;;;;;;;12.88;4.47;;;;;;;;;;4853464;29;20419;-78
2023/07/21 15:46:32;;;;;;;15.38;3.50;;;;;;;;;;4857098;29;20053;-75
2023/07/21 15:49:40;;;;;;;13.00;3.58;;;;;;;;;;4841764;29;20054;-76
2023/07/21 15:53:19;;;;;;;9.57;4.00;;;;;;;;;;4839797;29;20084;-76
2023/07/21 15:56:59;;;;;;;12.20;3.53;;;;;;;;;;4839718;29;20054;-74
2023/07/21 16:00:06;;;;;;;12.90;4.18;;;;;;;;;;4849802;29;20085;-76
2023/07/21 16:02:33;;;;;;;15.27;3.70;;;;;;;;;;4842282;29;20061;-76
2023/07/21 16:04:59;;;;;;;10.15;3.78;;;;;;;;;;4856073;29;20101;-79
2023/07/21 16:07:25;;;;;;;11.32;3.70;;;;;;;;;;4857870;29;20053;-71
2023/07/21 16:09:51;;;;;;;10.73;3.45;;;;;;;;;;4851401;29;20046;-78
2023/07/21 16:12:17;;;;;;;14.82;3.88;;;;;;;;;;4849684;29;20137;-76
2023/07/21 16:14:45;;;;;;;11.50;3.72;;;;;;;;;;4850206;29;20754;-78
2023/07/21 16:17:11;;;;;;;15.48;4.00;;;;;;;;;;4843439;29;20545;-75
2023/07/21 16:19:36;;;;;;;18.08;4.15;;;;;;;;;;4845392;29;20054;-75
2023/07/21 16:22:03;;;;;;;12.75;4.30;;;;;;;;;;4854984;29;20065;-77
2023/07/21 16:24:30;;;;;;;9.50;4.00;;;;;;;;;;4850511;29;20057;-80
2023/07/21 16:27:02;;;;;;;19.50;4.18;;;;;;;;;;4854320;29;20061;-77
2023/07/21 16:29:28;;;;;;;14.25;4.10;;;;;;;;;;4859346;29;20057;-76
2023/07/21 16:31:54;;;;;;;13.77;4.10;;;;;;;;;;4852378;29;20068;-75
2023/07/21 16:34:21;;;;;;;12.38;3.97;;;;;;;;;;4845551;29;20532;-81
2023/07/21 16:36:47;;;;;;;17.13;4.05;;;;;;;;;;4852687;29;20169;-74
2023/07/21 16:39:13;;;;;;;16.95;4.25;;;;;;;;;;4847896;29;20486;-78
2023/07/21 16:41:40;;;;;;;16.67;4.55;;;;;;;;;;4837130;29;20066;-77
2023/07/21 16:44:06;;;;;;;12.23;4.00;;;;;;;;;;4843974;29;20050;-74
2023/07/21 16:46:32;;;;;;;15.43;4.30;;;;;;;;;;4838634;29;20064;-74
2023/07/21 16:48:57;;;;;;;14.18;3.92;;;;;;;;;;4844229;29;20049;-77
2023/07/21 16:51:24;;;;;;;13.32;4.25;;;;;;;;;;4835713;29;20521;-73
2023/07/21 16:53:50;;;;;;;11.15;4.40;;;;;;;;;;4846269;29;20050;-74
2023/07/21 16:56:17;;;;;;;15.70;4.30;;;;;;;;;;4827478;29;20064;-76
2023/07/21 16:58:42;;;;;;;22.02;5.25;;;;;;;;;;4855204;29;20057;-74
2023/07/21 17:01:09;;;;;;;16.48;4.53;;;;;;;;;;4848944;29;20058;-76
2023/07/21 17:03:37;;;;;;;16.60;4.78;;;;;;;;;;4841031;29;20053;-73
2023/07/21 17:06:03;;;;;;;12.07;3.95;;;;;;;;;;4849848;29;20533;-74
2023/07/21 17:08:30;;;;;;;13.82;4.70;;;;;;;;;;4833518;29;20586;-72
2023/07/21 17:10:59;;;;;;;11.40;4.22;;;;;;;;;;4831970;29;20092;-72
2023/07/21 17:13:27;;;;;;;19.60;4.88;;;;;;;;;;4840039;29;20542;-80
2023/07/21 17:15:58;;;;;;;13.45;4.60;;;;;;;;;;4845687;29;20054;-74
2023/07/21 17:18:24;;;;;;;15.02;4.38;;;;;;;;;;4831914;29;20049;-72
2023/07/21 17:20:53;;;;;;;19.98;4.72;;;;;;;;;;4855066;29;20511;-73
2023/07/21 17:23:19;;;;;;;14.63;4.18;;;;;;;;;;4838035;29;20110;-72
2023/07/21 17:25:46;;;;;;;9.40;4.10;;;;;;;;;;4828533;29;20064;-75
2023/07/21 17:28:12;;;;;;;15.43;4.78;;;;;;;;;;4850050;29;20653;-78
2023/07/21 17:30:38;;;;;;;16.85;4.60;;;;;;;;;;4854777;29;20052;-73
2023/07/21 17:33:06;;;;;;;10.77;4.38;;;;;;;;;;4854527;29;20188;-72
2023/07/21 17:35:32;;;;;;;16.27;4.93;;;;;;;;;;4832611;29;20058;-75
2023/07/21 17:37:57;;;;;;;17.10;4.90;;;;;;;;;;4841954;29;20061;-74
2023/07/21 17:40:24;;;;;;;16.20;4.50;;;;;;;;;;4857458;29;20041;-80
2023/07/21 17:42:49;;;;;;;15.70;5.03;;;;;;;;;;4831474;29;20620;-76
2023/07/21 17:45:18;;;;;;;13.27;5.05;;;;;;;;;;4835482;29;20053;-76
2023/07/21 17:47:46;;;;;;;13.07;4.32;;;;;;;;;;4850938;29;20604;-74
2023/07/21 17:50:12;;;;;;;17.23;4.72;;;;;;;;;;4827782;29;20068;-79
2023/07/21 17:52:40;;;;;;;14.90;4.75;;;;;;;;;;4869082;29;20061;-78
2023/07/21 17:55:06;;;;;;;14.82;4.70;;;;;;;;;;4851002;29;20117;-77
2023/07/21 17:57:33;;;;;;;17.67;4.40;;;;;;;;;;4844402;29;20065;-76
2023/07/21 17:59:59;;;;;;;15.50;5.25;;;;;;;;;;4847962;29;20101;-76
2023/07/21 18:02:25;;;;;;;14.82;5.05;;;;;;;;;;4852318;29;20053;-75
2023/07/21 18:04:51;;;;;;;18.77;5.30;;;;;;;;;;4852088;29;20050;-77
2023/07/21 18:07:16;;;;;;;14.15;4.95;;;;;;;;;;4841060;29;20052;-77
2023/07/21 18:09:42;;;;;;;13.90;4.82;;;;;;;;;;4849035;29;20160;-75
2023/07/21 18:12:09;;;;;;;14.30;4.57;;;;;;;;;;4849857;29;20054;-74
2023/07/21 18:14:35;;;;;;;18.45;5.70;;;;;;;;;;4850224;29;20062;-77
2023/07/21 18:17:02;;;;;;;14.13;4.80;;;;;;;;;;4849344;29;20106;-77
2023/07/21 18:19:28;;;;;;;13.32;5.03;;;;;;;;;;4837069;29;20065;-77
2023/07/21 18:21:54;;;;;;;12.65;4.72;;;;;;;;;;4845251;29;20109;-75
2023/07/21 18:24:20;;;;;;;17.88;5.22;;;;;;;;;;4851031;29;20057;-77
2023/07/21 18:26:47;;;;;;;18.60;5.22;;;;;;;;;;4838551;29;20049;-73
2023/07/21 18:29:13;;;;;;;15.43;4.93;;;;;;;;;;4848281;29;20537;-77